Time;durP1;ratioP1;P1;durP2;ratioP2;P2;SDS_P1;SDS_P2;PMS_P1;PMS_P2;Temp;Humidity;BMP_temperature;BMP_pressure;BME280_temperature;BME280_humidity;BME280_pressure;Samples;Min_cycle;Max_cycle;Signal;HPM_P1;HPM_P2
2023/05/22 00:01:00;;;;;;;7.93;5.78;;;20.60;99.80;;;;;;9472717;23;20195;-89
2023/05/22 00:04:46;;;;;;;7.13;6.07;;;20.50;99.90;;;;;;9472154;23;20176;-89
2023/05/22 00:08:32;;;;;;;7.10;6.13;;;20.50;99.90;;;;;;9472701;23;20585;-89
2023/05/22 00:12:17;;;;;;;6.28;5.68;;;20.50;99.90;;;;;;9498066;23;20214;-89
2023/05/22 00:16:03;;;;;;;8.50;6.53;;;20.50;99.90;;;;;;9473389;23;20181;-90
2023/05/22 00:19:50;;;;;;;7.40;6.43;;;20.40;99.90;;;;;;9498569;23;20155;-90
2023/05/22 00:23:36;;;;;;;7.78;6.03;;;20.40;99.90;;;;;;9471190;23;20558;-90
2023/05/22 00:27:21;;;;;;;9.05;6.45;;;20.40;99.90;;;;;;9496618;23;20199;-91
2023/05/22 00:31:07;;;;;;;7.38;5.57;;;20.40;99.90;;;;;;9473340;23;20211;-89
2023/05/22 00:34:53;;;;;;;8.68;6.18;;;20.30;99.90;;;;;;9471012;23;20176;-89
2023/05/22 00:38:39;;;;;;;8.60;6.07;;;20.30;99.90;;;;;;9497416;23;20163;-89
2023/05/22 00:42:25;;;;;;;6.82;5.90;;;20.20;99.90;;;;;;9474867;23;20171;-89
2023/05/22 00:46:11;;;;;;;10.60;6.50;;;20.20;99.90;;;;;;9474244;23;20190;-89
2023/05/22 00:49:58;;;;;;;6.82;6.13;;;20.20;99.90;;;;;;9473564;23;20168;-89
2023/05/22 00:53:45;;;;;;;8.50;6.40;;;20.10;99.90;;;;;;9470331;23;20667;-89
2023/05/22 00:57:32;;;;;;;8.63;6.10;;;20.10;99.90;;;;;;9473838;23;20160;-89
2023/05/22 01:01:18;;;;;;;8.38;6.18;;;20.00;99.90;;;;;;9498381;23;20235;-89
2023/05/22 01:05:05;;;;;;;7.25;5.95;;;20.00;99.90;;;;;;9474862;23;20187;-89
2023/05/22 01:08:51;;;;;;;7.47;5.70;;;19.90;99.90;;;;;;9475650;23;20606;-89
2023/05/22 01:12:42;;;;;;;10.52;6.32;;;19.90;99.90;;;;;;9500922;23;20243;-89
2023/05/22 01:17:13;;;;;;;8.20;6.00;;;19.80;99.90;;;;;;9474339;23;20180;-89
2023/05/22 01:21:09;;;;;;;8.30;6.47;;;19.70;99.90;;;;;;9435575;23;20243;-89
2023/05/22 01:25:27;;;;;;;6.90;6.10;;;19.70;99.90;;;;;;9473306;23;20663;-89
2023/05/22 01:29:51;;;;;;;7.25;6.15;;;19.70;99.90;;;;;;9499362;23;20167;-89
2023/05/22 01:34:03;;;;;;;9.70;6.18;;;19.60;99.90;;;;;;9466159;23;20183;-89
2023/05/22 01:37:50;;;;;;;8.00;6.53;;;19.60;99.90;;;;;;9466088;23;20164;-90
2023/05/22 01:41:36;;;;;;;6.47;5.78;;;19.60;99.90;;;;;;9472437;23;20247;-89
2023/05/22 01:45:22;;;;;;;6.95;6.25;;;19.50;99.90;;;;;;9473531;23;20188;-89
2023/05/22 01:49:08;;;;;;;10.68;6.13;;;19.50;99.90;;;;;;9473605;23;20640;-89
2023/05/22 01:53:06;;;;;;;8.27;6.32;;;19.40;99.90;;;;;;9471845;23;20180;-89
2023/05/22 01:57:01;;;;;;;8.38;5.97;;;19.40;99.90;;;;;;9474443;23;20180;-89
2023/05/22 02:00:50;;;;;;;8.57;6.15;;;19.30;99.90;;;;;;9500538;23;20151;-89
2023/05/22 02:04:43;;;;;;;6.43;5.63;;;19.30;99.90;;;;;;9497573;23;20176;-90
2023/05/22 02:08:30;;;;;;;8.38;6.13;;;19.20;99.90;;;;;;9472359;23;20200;-89
2023/05/22 02:12:16;;;;;;;7.47;5.93;;;19.20;99.90;;;;;;9473196;23;20218;-90
2023/05/22 02:16:03;;;;;;;9.68;6.70;;;19.20;99.90;;;;;;9474602;23;20574;-89
2023/05/22 02:19:48;;;;;;;8.18;6.47;;;19.20;99.90;;;;;;9472061;23;20191;-90
2023/05/22 02:23:34;;;;;;;8.75;6.68;;;19.10;99.90;;;;;;9473788;23;20231;-89
2023/05/22 02:27:20;;;;;;;8.52;6.40;;;19.10;99.90;;;;;;9484491;23;20167;-90
2023/05/22 02:31:05;;;;;;;9.43;6.57;;;19.10;99.90;;;;;;9499047;23;20163;-89
2023/05/22 02:34:51;;;;;;;8.73;6.72;;;19.00;99.90;;;;;;9473217;23;20186;-89
2023/05/22 02:38:37;;;;;;;13.13;7.05;;;19.00;99.90;;;;;;9498061;23;20156;-89
2023/05/22 02:42:23;;;;;;;6.93;6.20;;;18.90;99.90;;;;;;9471663;23;20264;-89
2023/05/22 02:46:09;;;;;;;7.93;6.95;;;18.90;99.90;;;;;;9500325;23;20184;-89
2023/05/22 02:49:56;;;;;;;8.40;7.20;;;18.90;99.90;;;;;;9472875;23;20235;-89
2023/05/22 02:53:42;;;;;;;7.82;6.90;;;18.80;99.90;;;;;;9473680;23;20195;-89
2023/05/22 02:57:27;;;;;;;8.00;6.38;;;18.80;99.90;;;;;;9498822;23;20152;-90
2023/05/22 03:01:14;;;;;;;9.38;6.85;;;18.70;99.90;;;;;;9473421;23;20218;-89
2023/05/22 03:05:00;;;;;;;7.78;6.38;;;18.60;99.90;;;;;;9473124;23;20183;-89
2023/05/22 03:08:47;;;;;;;8.25;6.57;;;18.60;99.90;;;;;;9472937;23;20225;-89
2023/05/22 03:12:33;;;;;;;7.70;6.93;;;18.60;99.90;;;;;;9499941;23;20662;-89
2023/05/22 03:16:18;;;;;;;12.18;6.75;;;18.60;99.90;;;;;;9474065;23;20501;-89
2023/05/22 03:20:05;;;;;;;15.45;6.82;;;18.50;99.90;;;;;;9500184;23;20606;-89
2023/05/22 03:23:51;;;;;;;8.45;6.70;;;18.50;99.90;;;;;;9473422;23;20271;-89
2023/05/22 03:27:38;;;;;;;8.25;6.93;;;18.40;99.90;;;;;;9472937;23;20163;-89
2023/05/22 03:31:25;;;;;;;7.28;5.97;;;18.40;99.90;;;;;;9471990;23;20176;-89
2023/05/22 03:35:11;;;;;;;7.38;6.28;;;18.30;99.90;;;;;;9471623;23;20207;-89
2023/05/22 03:38:57;;;;;;;9.50;7.07;;;18.30;99.90;;;;;;9472899;23;20163;-89
2023/05/22 03:42:43;;;;;;;8.32;6.35;;;18.30;99.90;;;;;;9475160;23;20856;-89
2023/05/22 03:46:28;;;;;;;7.40;6.35;;;18.30;99.90;;;;;;9475100;23;20636;-89
2023/05/22 03:50:14;;;;;;;7.30;6.20;;;18.30;99.90;;;;;;9475769;23;20160;-89
2023/05/22 03:54:00;;;;;;;6.97;6.07;;;18.30;99.90;;;;;;9501121;23;20192;-89
2023/05/22 03:57:46;;;;;;;7.28;6.45;;;18.30;99.90;;;;;;9476983;23;20160;-91
2023/05/22 04:01:31;;;;;;;7.95;6.40;;;18.30;99.90;;;;;;9477422;23;20170;-89
2023/05/22 04:05:17;;;;;;;9.60;6.13;;;18.20;99.90;;;;;;9472455;23;20192;-89
2023/05/22 04:09:03;;;;;;;10.35;6.55;;;18.20;99.90;;;;;;9470250;23;20246;-89
2023/05/22 04:12:49;;;;;;;8.13;6.60;;;18.20;99.90;;;;;;9472050;23;20191;-90
2023/05/22 04:16:35;;;;;;;9.85;6.07;;;18.20;99.90;;;;;;9474701;23;20237;-89
2023/05/22 04:20:21;;;;;;;10.05;5.93;;;18.20;99.90;;;;;;9472894;23;20239;-88
2023/05/22 04:24:06;;;;;;;8.15;5.80;;;18.10;99.90;;;;;;9473040;23;20654;-89
2023/05/22 04:27:53;;;;;;;8.07;6.20;;;18.10;99.90;;;;;;9468992;23;20148;-89
2023/05/22 04:31:40;;;;;;;8.60;6.20;;;18.10;99.90;;;;;;9500245;23;20227;-88
2023/05/22 04:35:28;;;;;;;8.88;5.93;;;18.10;99.90;;;;;;9476498;23;20184;-89
2023/05/22 04:39:14;;;;;;;8.70;5.78;;;18.10;99.90;;;;;;9477957;23;20581;-91
2023/05/22 04:43:00;;;;;;;7.15;5.50;;;18.10;99.90;;;;;;9476775;23;20199;-89
2023/05/22 04:46:46;;;;;;;8.90;6.60;;;18.10;99.90;;;;;;9474555;23;20270;-89
2023/05/22 04:50:32;;;;;;;8.02;6.20;;;18.10;99.90;;;;;;9477655;23;20162;-88
2023/05/22 04:54:17;;;;;;;8.85;5.78;;;18.10;99.90;;;;;;9477652;23;20192;-87
2023/05/22 04:58:04;;;;;;;6.60;5.82;;;18.10;99.90;;;;;;9478036;23;20156;-88
2023/05/22 05:01:51;;;;;;;9.10;6.20;;;18.10;99.90;;;;;;9488861;23;20164;-88
2023/05/22 05:05:37;;;;;;;6.72;5.80;;;18.10;99.90;;;;;;9478530;23;20647;-89
2023/05/22 05:09:23;;;;;;;7.80;5.70;;;18.10;99.90;;;;;;9477940;23;20520;-89
2023/05/22 05:13:09;;;;;;;10.25;6.28;;;18.10;99.90;;;;;;9477503;23;20268;-83
2023/05/22 05:16:55;;;;;;;7.25;5.40;;;18.10;99.90;;;;;;9477388;23;20176;-83
2023/05/22 05:20:41;;;;;;;6.07;5.40;;;18.10;99.90;;;;;;9477551;23;20247;-84
2023/05/22 05:24:27;;;;;;;11.02;6.47;;;18.10;99.90;;;;;;9478184;23;20184;-83
2023/05/22 05:28:12;;;;;;;8.63;6.50;;;18.20;99.90;;;;;;9474952;23;20171;-82
2023/05/22 05:31:58;;;;;;;7.35;6.35;;;18.20;99.90;;;;;;9475726;23;20563;-83
2023/05/22 05:35:44;;;;;;;9.57;5.97;;;18.20;99.90;;;;;;9475807;23;20198;-83
2023/05/22 05:39:30;;;;;;;11.15;6.50;;;18.20;99.90;;;;;;9501484;23;20152;-82
2023/05/22 05:43:15;;;;;;;6.90;5.80;;;18.30;99.90;;;;;;9476014;23;20160;-83
2023/05/22 05:47:01;;;;;;;8.02;6.47;;;18.30;99.90;;;;;;9503490;23;20251;-83
2023/05/22 05:50:46;;;;;;;9.35;7.07;;;18.40;99.90;;;;;;9476699;23;20160;-89
2023/05/22 05:54:32;;;;;;;8.75;6.60;;;18.40;99.90;;;;;;9477559;23;20203;-91
2023/05/22 05:58:17;;;;;;;9.82;6.55;;;18.50;99.90;;;;;;9475796;23;20156;-89
2023/05/22 06:02:03;;;;;;;12.48;5.88;;;18.60;99.90;;;;;;9473949;23;20168;-89
2023/05/22 06:05:49;;;;;;;7.95;6.43;;;18.70;99.90;;;;;;9473749;23;20180;-90
2023/05/22 06:09:35;;;;;;;9.48;6.63;;;18.90;99.90;;;;;;9473630;23;20211;-90
2023/05/22 06:13:21;;;;;;;11.38;6.47;;;19.00;99.90;;;;;;9474199;23;20191;-89
2023/05/22 06:17:09;;;;;;;9.05;6.20;;;19.10;99.90;;;;;;9475008;23;20184;-89
2023/05/22 06:20:57;;;;;;;9.07;6.43;;;19.10;99.90;;;;;;9474981;23;20234;-89
2023/05/22 06:24:43;;;;;;;10.70;6.72;;;19.10;99.90;;;;;;9474851;23;20180;-89
2023/05/22 06:28:29;;;;;;;12.35;6.95;;;19.20;99.90;;;;;;9475051;23;20152;-89
2023/05/22 06:32:15;;;;;;;7.78;6.60;;;19.20;99.90;;;;;;9475088;23;20519;-90
2023/05/22 06:36:02;;;;;;;9.98;6.88;;;19.30;99.90;;;;;;9501137;23;20173;-88
2023/05/22 06:39:48;;;;;;;8.55;7.00;;;19.40;99.90;;;;;;9475402;23;20211;-89
2023/05/22 06:43:33;;;;;;;8.63;6.47;;;19.60;99.90;;;;;;9475752;23;20164;-90
2023/05/22 06:47:20;;;;;;;8.80;6.43;;;19.70;99.90;;;;;;9474777;23;20172;-89
2023/05/22 06:51:07;;;;;;;10.32;6.03;;;19.90;99.90;;;;;;9475716;23;20520;-89
2023/05/22 06:54:53;;;;;;;8.50;6.35;;;20.10;99.90;;;;;;9474528;23;20234;-90
2023/05/22 06:58:38;;;;;;;7.90;6.47;;;20.20;99.90;;;;;;9473990;23;20215;-89
2023/05/22 07:02:25;;;;;;;8.88;6.10;;;20.40;99.90;;;;;;9474603;23;20160;-89
2023/05/22 07:06:11;;;;;;;8.98;5.85;;;20.60;99.90;;;;;;9479190;23;20214;-87
2023/05/22 07:09:56;;;;;;;6.70;5.60;;;20.80;99.90;;;;;;9475588;23;20164;-89
2023/05/22 07:13:42;;;;;;;9.63;6.07;;;21.00;99.90;;;;;;9476099;23;20199;-88
2023/05/22 07:17:28;;;;;;;7.95;5.82;;;21.10;99.90;;;;;;9502263;23;20149;-88
2023/05/22 07:21:14;;;;;;;8.73;5.82;;;21.20;99.90;;;;;;9476832;23;20671;-89
2023/05/22 07:25:00;;;;;;;11.50;5.35;;;21.30;99.90;;;;;;9476709;23;20523;-88
2023/05/22 07:28:46;;;;;;;10.27;5.43;;;21.40;99.90;;;;;;9475683;23;20195;-88
2023/05/22 07:32:32;;;;;;;7.80;5.25;;;21.50;99.90;;;;;;9484065;23;20251;-85
2023/05/22 07:36:17;;;;;;;5.97;5.00;;;21.50;99.90;;;;;;9514882;23;20226;-88
2023/05/22 07:40:05;;;;;;;10.80;5.13;;;21.60;99.90;;;;;;9475825;23;20187;-89
2023/05/22 07:43:51;;;;;;;6.10;5.20;;;21.70;99.90;;;;;;9501567;23;20679;-89
2023/05/22 07:47:36;;;;;;;8.73;4.47;;;21.90;99.90;;;;;;9477266;23;20164;-89
2023/05/22 07:51:22;;;;;;;6.07;5.07;;;22.00;98.10;;;;;;9504553;23;20211;-89
2023/05/22 07:55:08;;;;;;;7.47;4.97;;;22.20;97.50;;;;;;9478764;23;20183;-88
2023/05/22 07:58:54;;;;;;;6.82;4.50;;;22.40;96.80;;;;;;9504111;23;20148;-88
2023/05/22 08:02:40;;;;;;;6.38;3.97;;;22.60;94.60;;;;;;9478673;23;20501;-88
2023/05/22 08:06:26;;;;;;;4.57;4.10;;;22.60;92.00;;;;;;9478259;23;20184;-88
2023/05/22 08:10:16;;;;;;;6.10;4.05;;;22.50;90.70;;;;;;9478180;23;20203;-89
2023/05/22 08:14:02;;;;;;;5.65;4.47;;;22.50;91.80;;;;;;9478406;23;20242;-88
2023/05/22 08:17:47;;;;;;;5.40;4.15;;;22.60;91.00;;;;;;9504335;23;20152;-88
2023/05/22 08:21:34;;;;;;;6.68;3.92;;;22.60;90.10;;;;;;9479641;23;20171;-89
2023/05/22 08:25:20;;;;;;;5.07;4.43;;;22.80;89.00;;;;;;9479870;23;20179;-89
2023/05/22 08:29:09;;;;;;;7.72;4.50;;;22.90;87.50;;;;;;9477811;23;20156;-89
2023/05/22 08:32:55;;;;;;;6.32;4.45;;;23.00;87.70;;;;;;9478415;23;20249;-89
2023/05/22 08:36:41;;;;;;;6.55;5.07;;;23.00;86.70;;;;;;9478556;23;20180;-88
2023/05/22 08:40:37;;;;;;;7.47;5.72;;;23.00;87.40;;;;;;9477630;23;20200;-88
2023/05/22 08:44:24;;;;;;;8.98;5.82;;;23.00;90.80;;;;;;9503996;23;20176;-88
2023/05/22 08:48:12;;;;;;;7.75;5.88;;;23.20;90.40;;;;;;9477859;23;20239;-88
2023/05/22 08:52:04;;;;;;;9.75;5.63;;;23.30;91.30;;;;;;9477724;23;20660;-88
2023/05/22 08:55:52;;;;;;;8.43;5.10;;;23.40;90.60;;;;;;9477684;23;20176;-89
2023/05/22 08:59:40;;;;;;;9.60;5.78;;;23.50;88.30;;;;;;9477203;23;20168;-88
2023/05/22 09:03:27;;;;;;;8.70;5.93;;;23.70;90.40;;;;;;9503784;23;20619;-88
2023/05/22 09:07:13;;;;;;;8.50;5.80;;;23.70;87.50;;;;;;9503695;23;20624;-89
2023/05/22 09:10:58;;;;;;;10.52;5.55;;;23.80;87.00;;;;;;9504013;23;20500;-89
2023/05/22 09:14:44;;;;;;;7.07;5.57;;;23.90;88.20;;;;;;9478257;23;20247;-89
2023/05/22 09:18:31;;;;;;;7.35;5.13;;;24.00;88.70;;;;;;9477895;23;20235;-89
2023/05/22 09:22:16;;;;;;;8.05;5.68;;;24.10;88.80;;;;;;9477042;23;20171;-88
2023/05/22 09:26:03;;;;;;;7.13;5.57;;;24.00;89.30;;;;;;9503347;23;20176;-88
2023/05/22 09:29:51;;;;;;;11.10;5.85;;;23.90;90.20;;;;;;9477331;23;20159;-88
2023/05/22 09:33:36;;;;;;;8.55;6.05;;;23.90;90.60;;;;;;9477350;23;20219;-89
2023/05/22 09:37:22;;;;;;;10.70;5.55;;;23.90;90.10;;;;;;9477227;23;20157;-89
2023/05/22 09:41:08;;;;;;;5.80;5.20;;;24.00;90.60;;;;;;9503172;23;20461;-87
2023/05/22 09:44:54;;;;;;;8.35;5.03;;;24.20;89.50;;;;;;9503099;23;20195;-88
2023/05/22 09:48:39;;;;;;;6.43;5.22;;;24.20;87.10;;;;;;9476792;23;20164;-88
2023/05/22 09:52:33;;;;;;;7.63;4.65;;;24.30;86.40;;;;;;9477190;23;20295;-88
2023/05/22 09:56:22;;;;;;;6.07;4.82;;;24.30;86.70;;;;;;9476857;23;20331;-89
2023/05/22 10:00:17;;;;;;;6.60;4.60;;;24.40;87.00;;;;;;9477170;23;20235;-89
2023/05/22 10:04:03;;;;;;;7.40;4.80;;;24.30;84.40;;;;;;9477768;23;20211;-89
2023/05/22 10:07:55;;;;;;;4.82;4.07;;;24.30;84.50;;;;;;9479213;23;20160;-88
2023/05/22 10:11:42;;;;;;;7.80;4.55;;;24.30;86.10;;;;;;9485463;23;20214;-88
2023/05/22 10:15:28;;;;;;;5.38;4.07;;;24.50;85.30;;;;;;9475109;23;20207;-89
2023/05/22 10:19:16;;;;;;;6.35;4.78;;;24.60;85.40;;;;;;9476241;23;20166;-89
2023/05/22 10:23:02;;;;;;;5.20;4.55;;;24.80;81.50;;;;;;9476311;23;20156;-89
2023/05/22 10:26:49;;;;;;;8.00;4.05;;;24.80;81.40;;;;;;9476597;23;20180;-90
2023/05/22 10:31:04;;;;;;;10.75;4.18;;;24.80;81.00;;;;;;9475941;23;20600;-89
2023/05/22 10:34:55;;;;;;;6.30;4.78;;;24.70;80.60;;;;;;9474312;23;20352;-88
2023/05/22 10:38:56;;;;;;;7.80;4.47;;;24.60;79.20;;;;;;9475521;23;20160;-88
2023/05/22 10:42:42;;;;;;;6.57;3.92;;;24.50;79.10;;;;;;9475943;23;20164;-89
2023/05/22 10:46:33;;;;;;;19.63;5.20;;;24.50;79.50;;;;;;9476095;23;20184;-89
2023/05/22 10:50:19;;;;;;;8.32;4.80;;;24.50;79.70;;;;;;9501778;23;20136;-88
2023/05/22 10:54:06;;;;;;;4.47;4.07;;;24.50;77.40;;;;;;9478007;23;20223;-89
2023/05/22 10:57:55;;;;;;;6.53;4.43;;;24.50;79.10;;;;;;9474387;23;20156;-88
2023/05/22 11:01:41;;;;;;;8.80;4.05;;;24.60;77.50;;;;;;9476163;23;20188;-89
2023/05/22 11:05:35;;;;;;;6.75;4.00;;;24.80;77.90;;;;;;9475879;23;20191;-89
2023/05/22 11:09:30;;;;;;;7.38;4.20;;;24.90;78.70;;;;;;9475381;23;20152;-88
2023/05/22 11:13:16;;;;;;;7.10;4.13;;;25.00;78.20;;;;;;9475382;23;20206;-89
2023/05/22 11:17:04;;;;;;;5.30;4.30;;;25.10;77.40;;;;;;9475434;23;20806;-89
2023/05/22 11:20:52;;;;;;;7.00;4.10;;;25.20;79.30;;;;;;9475452;23;20190;-91
2023/05/22 11:24:39;;;;;;;11.77;4.03;;;25.30;76.00;;;;;;9475691;23;20207;-89
2023/05/22 11:28:24;;;;;;;5.50;3.92;;;25.20;76.40;;;;;;9475085;23;20160;-89
2023/05/22 11:32:16;;;;;;;4.75;4.10;;;25.00;76.30;;;;;;9501179;23;20573;-88
2023/05/22 11:36:03;;;;;;;6.10;4.18;;;25.00;78.30;;;;;;9475274;23;20176;-88
2023/05/22 11:40:03;;;;;;;6.40;4.00;;;25.00;76.80;;;;;;9475894;23;20187;-89
2023/05/22 11:43:48;;;;;;;6.20;4.13;;;25.20;76.90;;;;;;9476272;23;20191;-88
2023/05/22 11:47:35;;;;;;;8.73;3.85;;;25.20;77.10;;;;;;9501397;23;20152;-90
2023/05/22 11:51:21;;;;;;;8.70;4.40;;;25.30;76.90;;;;;;9475186;23;20207;-89
2023/05/22 11:55:08;;;;;;;5.00;3.55;;;25.30;76.30;;;;;;9475687;23;20180;-89
2023/05/22 11:58:53;;;;;;;15.50;7.65;;;25.20;75.60;;;;;;9475333;23;20147;-89
2023/05/22 12:02:45;;;;;;;8.82;4.28;;;25.20;76.50;;;;;;9501739;23;20153;-89
2023/05/22 12:06:32;;;;;;;12.70;4.10;;;25.10;75.80;;;;;;9475651;23;20184;-89
2023/05/22 12:10:17;;;;;;;8.05;4.13;;;25.10;76.60;;;;;;9475287;23;20633;-89
2023/05/22 12:14:03;;;;;;;8.52;4.38;;;25.20;76.60;;;;;;9475039;23;20287;-89
2023/05/22 12:17:53;;;;;;;9.00;4.25;;;25.30;78.10;;;;;;9475471;23;20236;-89
2023/05/22 12:21:40;;;;;;;6.40;4.03;;;25.40;77.70;;;;;;9475194;23;20503;-89
2023/05/22 12:25:37;;;;;;;5.65;4.15;;;25.50;77.90;;;;;;9501928;23;20172;-89
2023/05/22 12:29:24;;;;;;;7.90;4.03;;;25.50;75.80;;;;;;9500500;23;20144;-90
2023/05/22 12:33:13;;;;;;;9.07;4.60;;;25.50;75.10;;;;;;9476267;23;20532;-90
2023/05/22 12:36:59;;;;;;;9.15;4.78;;;25.60;76.90;;;;;;9478945;23;20183;-90
2023/05/22 12:40:45;;;;;;;7.72;4.45;;;25.60;76.10;;;;;;9481134;23;20163;-91
2023/05/22 12:44:31;;;;;;;8.98;4.20;;;25.70;74.20;;;;;;9527594;23;20172;-90
2023/05/22 12:48:17;;;;;;;5.07;4.07;;;25.70;74.80;;;;;;9518339;23;20179;-89
2023/05/22 12:52:03;;;;;;;6.20;4.15;;;25.70;74.40;;;;;;9517218;23;20186;-90
2023/05/22 12:55:48;;;;;;;7.25;4.25;;;25.80;75.00;;;;;;9505039;23;20168;-89
2023/05/22 12:59:35;;;;;;;5.30;4.30;;;25.90;74.00;;;;;;9477695;23;20167;-89
2023/05/22 13:03:21;;;;;;;4.97;3.80;;;26.00;74.60;;;;;;9503567;23;20156;-90
2023/05/22 13:07:07;;;;;;;5.68;4.43;;;26.00;74.80;;;;;;9504206;23;20160;-90
2023/05/22 13:10:53;;;;;;;9.52;3.70;;;26.00;73.00;;;;;;9478476;23;20503;-90
2023/05/22 13:14:39;;;;;;;8.32;4.13;;;26.00;73.00;;;;;;9476793;23;20255;-88
2023/05/22 13:18:24;;;;;;;9.88;4.15;;;26.00;73.40;;;;;;9476315;23;20179;-89
2023/05/22 13:22:10;;;;;;;5.15;4.35;;;26.10;72.70;;;;;;9477667;23;20605;-90
2023/05/22 13:25:56;;;;;;;6.55;4.20;;;26.20;73.00;;;;;;9478228;23;20180;-89
2023/05/22 13:29:47;;;;;;;7.78;4.53;;;26.20;73.50;;;;;;9476246;23;20166;-90
2023/05/22 13:33:33;;;;;;;9.15;4.65;;;26.30;73.20;;;;;;9475399;23;20231;-89
2023/05/22 13:37:23;;;;;;;9.32;4.10;;;26.30;71.90;;;;;;9477245;23;20183;-89
2023/05/22 13:41:08;;;;;;;5.32;3.97;;;26.40;71.10;;;;;;9477578;23;20160;-91
2023/05/22 13:44:54;;;;;;;5.32;3.55;;;26.40;70.50;;;;;;9477041;23;20640;-91
2023/05/22 13:48:40;;;;;;;7.88;4.18;;;26.40;69.80;;;;;;9476170;23;20159;-85
